Tiempo atmosférico en la estación meteorológica de Bullas, Murcia (690 m.)



Fecha
DESCASC
Temp. máxima en grados centígrados (hora)
DESCASC
Temp. mínima en grados centígrados (hora)
DESCASC
Temp. media en grados centígrados
DESCASC
Racha de viento máxima en m/sg (hora)
DESCASC
Velocidad máxima media en intervalos de 10 minutos(hora)
DESCASC
Precipitaciones diarias en mm
DESCASC
Precipitaciones de 00:00 a 06:00 en mm
DESCASC
Precipitaciones de 06:00 a 12:00 en mm
DESCASC
Precipitaciones de 12:00 a 18:00 en mm
DESCASC
Precipitaciones de 18:00 a 24:00 en mm
DESCASC
07-04-2019 -- (--) -- (--) -- -- (--) -- (--) -- -- -- -- --
06-04-2019 14.5 (17:00) 4.9 (06:00) 9.7 -- (--) -- (--) 1 0 0 1 0
05-04-2019 15.2 (12:50) 6.2 (22:40) 10.7 -- (--) -- (--) 0.8 0 0 0.8 0
04-04-2019 17 (16:30) 6.5 (00:00) 11.8 -- (--) -- (--) 0 0 0 0 0
03-04-2019 22.7 (17:10) 9.6 (00:00) 16.2 -- (--) -- (--) 0 0 0 0 0
02-04-2019 18.3 (18:30) 7.7 (00:00) 13 -- (--) -- (--) 0.4 0.4 0 0 0
01-04-2019 17.5 (16:30) 9.2 (00:00) 13.3 -- (--) -- (--) 8 0 0 0.2 7.8
31-03-2019 9.5 (18:50) 6.5 (00:00) 8 -- (--) -- (--) 14.8 2.4 5.2 4 3.2
30-03-2019 16.6 (15:30) 6.4 (00:00) 11.5 -- (--) -- (--) 0 0 0 0 0
29-03-2019 14 (14:10) 3.4 (00:00) 8.7 -- (--) -- (--) 0 0 0 0 0
28-03-2019 17 (16:00) 2.5 (00:00) 9.8 -- (--) -- (--) 0 0 0 0 0
27-03-2019 16.9 (15:40) 3.7 (00:00) 10.3 -- (--) -- (--) 0 0 0 0 0

Gráficas

Temp. máximas Temp. mínimas Temp. medias Precipitaciones Rachas de viento máximas Velocidades máximas media en intervalos de 10 minutos

Datos horarios

Fecha y hora oficial Temperatura (ºC) Velocidad del viento (km/h) Dirección del viento Racha (km/h) Dirección de racha Precipitación (mm) Presión (hPa) Tendencia (hPa) Humedad (%)
2019-04-10 02:00:00 -- -- -- -- -- -- -- -- --
2019-04-10 01:00:00 -- -- -- -- -- -- -- -- --
2019-04-10 00:00:00 10.1 -- -- -- -- 0 -- -- 62
2019-04-09 23:00:00 10.5 -- -- -- -- 0 -- -- 62
2019-04-09 22:00:00 10.8 -- -- -- -- 0 -- -- 60
2019-04-09 21:00:00 12.4 -- -- -- -- 0 -- -- 53
2019-04-09 20:00:00 13.5 -- -- -- -- 0 -- -- 48
2019-04-09 19:00:00 13.6 -- -- -- -- 0 -- -- 48
2019-04-09 18:00:00 15.5 -- -- -- -- 0 -- -- 44
2019-04-09 17:00:00 15.1 -- -- -- -- 0 -- -- 43
2019-04-09 16:00:00 15.7 -- -- -- -- 0 -- -- 39
2019-04-09 15:00:00 17.3 -- -- -- -- 0 -- -- 33
2019-04-09 14:00:00 16.3 -- -- -- -- 0 -- -- 36
2019-04-09 13:00:00 15.8 -- -- -- -- 0 -- -- 38
2019-04-09 12:00:00 14.3 -- -- -- -- 0 -- -- 43
2019-04-09 11:00:00 13 -- -- -- -- 0 -- -- 48
2019-04-09 10:00:00 11.3 -- -- -- -- 0 -- -- 53
2019-04-09 09:00:00 9.4 -- -- -- -- 0 -- -- 62
2019-04-09 08:00:00 7.4 -- -- -- -- 0 -- -- 78
2019-04-09 07:00:00 7.6 -- -- -- -- 0 -- -- 75
2019-04-09 06:00:00 9.2 -- -- -- -- 0 -- -- 68
2019-04-09 05:00:00 10.4 -- -- -- -- 0 -- -- 64
2019-04-09 04:00:00 10.6 -- -- -- -- 0 -- -- 65
2019-04-09 03:00:00 10.6 -- -- -- -- 0 -- -- 69
2019-04-09 02:00:00 10.7 -- -- -- -- 0 -- -- 80
2019-04-09 01:00:00 12.2 -- -- -- -- 0 -- -- 72
2019-04-09 00:00:00 12.7 -- -- -- -- 0 -- -- 68
2019-04-08 23:00:00 13.1 -- -- -- -- 0 -- -- 68
2019-04-08 22:00:00 14.5 -- -- -- -- 0 -- -- 61
2019-04-08 21:00:00 15.6 -- -- -- -- 0 -- -- 55
2019-04-08 20:00:00 16.7 -- -- -- -- 0 -- -- 47
2019-04-08 19:00:00 17.6 -- -- -- -- 0 -- -- 49
2019-04-08 18:00:00 17.9 -- -- -- -- 0 -- -- 51
2019-04-08 17:00:00 17.4 -- -- -- -- 0 -- -- 52
2019-04-08 16:00:00 17.5 -- -- -- -- 0 -- -- 50
2019-04-08 15:00:00 16.5 -- -- -- -- 0 -- -- 58
2019-04-08 14:00:00 15.2 -- -- -- -- 0 -- -- 63
2019-04-08 13:00:00 15.5 -- -- -- -- 0 -- -- 61
2019-04-08 12:00:00 13.5 -- -- -- -- 0 -- -- 66
2019-04-08 11:00:00 12.8 -- -- -- -- 0 -- -- 72
2019-04-08 10:00:00 11.9 -- -- -- -- 0 -- -- 76
2019-04-08 09:00:00 10.9 -- -- -- -- 0 -- -- 81
2019-04-08 08:00:00 10.3 -- -- -- -- 0 -- -- 83
2019-04-08 07:00:00 10.2 -- -- -- -- 0 -- -- 84
2019-04-08 06:00:00 10.3 -- -- -- -- 0 -- -- 84
2019-04-08 05:00:00 10.7 -- -- -- -- 0 -- -- 81
2019-04-08 04:00:00 10.6 -- -- -- -- 0 -- -- 82
2019-04-08 03:00:00 10.5 -- -- -- -- 0 -- -- 81
2019-04-08 02:00:00 10.4 -- -- -- -- 0 -- -- 78
2019-04-08 01:00:00 10.4 -- -- -- -- 0 -- -- 75
2019-04-08 00:00:00 10.4 -- -- -- -- 0 -- -- 72
2019-04-07 23:00:00 11.2 -- -- -- -- 0 -- -- 65
2019-04-07 22:00:00 11.5 -- -- -- -- 0 -- -- 62
2019-04-07 21:00:00 12.3 -- -- -- -- 0 -- -- 58
2019-04-07 20:00:00 13.1 -- -- -- -- 0 -- -- 53
2019-04-07 19:00:00 13.6 -- -- -- -- 0 -- -- 49
2019-04-07 18:00:00 15 -- -- -- -- 0 -- -- 44
2019-04-07 17:00:00 14.7 -- -- -- -- 0 -- -- 45
2019-04-07 16:00:00 14.6 -- -- -- -- 0 -- -- 43
2019-04-07 15:00:00 14.3 -- -- -- -- 0 -- -- 44
2019-04-07 14:00:00 14 -- -- -- -- 0 -- -- 46
2019-04-07 13:00:00 12.8 -- -- -- -- 0 -- -- 54
2019-04-07 12:00:00 11.4 -- -- -- -- 0 -- -- 61
2019-04-07 11:00:00 8.1 -- -- -- -- 0 -- -- 85
2019-04-07 10:00:00 6.1 -- -- -- -- 0 -- -- 92
2019-04-07 09:00:00 -- -- -- -- -- -- -- -- --
2019-04-07 08:00:00 -- -- -- -- -- -- -- -- --
2019-04-07 07:00:00 -- -- -- -- -- -- -- -- --
2019-04-07 06:00:00 -- -- -- -- -- -- -- -- --
2019-04-07 05:00:00 -- -- -- -- -- -- -- -- --
2019-04-07 04:00:00 7.2 -- -- -- -- 0 -- -- 66
2019-04-07 03:00:00 6.9 -- -- -- -- 0 -- -- 69
2019-04-07 02:00:00 7.1 -- -- -- -- 0 -- -- 67
2019-04-07 01:00:00 7.2 -- -- -- -- 0 -- -- 65
2019-04-07 00:00:00 7.6 -- -- -- -- 0 -- -- 59
2019-04-06 23:00:00 7.8 -- -- -- -- 0 -- -- 62
2019-04-06 22:00:00 7.8 -- -- -- -- 0 -- -- 65
2019-04-06 21:00:00 8.4 -- -- -- -- 0 -- -- 65
2019-04-06 20:00:00 9.9 -- -- -- -- 0 -- -- 61
2019-04-06 19:00:00 12 -- -- -- -- 0 -- -- 53
2019-04-06 18:00:00 12.1 -- -- -- -- 0 -- -- 54
2019-04-06 17:00:00 14.5 -- -- -- -- 0 -- -- 47
2019-04-06 16:00:00 14 -- -- -- -- 0 -- -- 48
2019-04-06 15:00:00 12.9 -- -- -- -- 0.2 -- -- 52
2019-04-06 14:00:00 9.6 -- -- -- -- 0.8 -- -- 66
2019-04-06 13:00:00 12.3 -- -- -- -- 0 -- -- 47
2019-04-06 12:00:00 11.9 -- -- -- -- 0 -- -- 51
2019-04-06 11:00:00 10.6 -- -- -- -- 0 -- -- 53
2019-04-06 10:00:00 8.7 -- -- -- -- 0 -- -- 61
2019-04-06 09:00:00 6.4 -- -- -- -- 0 -- -- 66
2019-04-06 08:00:00 5.6 -- -- -- -- 0 -- -- 67
2019-04-06 07:00:00 5.4 -- -- -- -- 0 -- -- 73
2019-04-06 06:00:00 4.9 -- -- -- -- 0 -- -- 75
2019-04-06 05:00:00 5.9 -- -- -- -- 0 -- -- 71
2019-04-06 04:00:00 5.7 -- -- -- -- 0 -- -- 71
2019-04-06 03:00:00 6.4 -- -- -- -- 0 -- -- 67
2019-04-06 02:00:00 6.5 -- -- -- -- 0 -- -- 66
2019-04-06 01:00:00 6.4 -- -- -- -- 0 -- -- 66
2019-04-06 00:00:00 6.2 -- -- -- -- 0 -- -- 61
2019-04-05 23:00:00 6.5 -- -- -- -- 0 -- -- 60
2019-04-05 22:00:00 6.7 -- -- -- -- 0 -- -- 64
2019-04-05 21:00:00 -- -- -- -- -- -- -- -- --
2019-04-05 20:00:00 -- -- -- -- -- -- -- -- --
2019-04-05 19:00:00 -- -- -- -- -- -- -- -- --
2019-04-05 18:00:00 -- -- -- -- -- -- -- -- --
2019-04-05 17:00:00 -- -- -- -- -- -- -- -- --
2019-04-05 16:00:00 -- -- -- -- -- -- -- -- --
2019-04-05 15:00:00 -- -- -- -- -- -- -- -- --
2019-04-05 14:00:00 -- -- -- -- -- -- -- -- --
2019-04-05 13:00:00 -- -- -- -- -- -- -- -- --
2019-04-05 12:00:00 13.2 -- -- -- -- 0 -- -- 51
2019-04-05 11:00:00 11.2 -- -- -- -- 0 -- -- 55
2019-04-05 10:00:00 9.6 -- -- -- -- 0 -- -- 59
2019-04-05 09:00:00 8 -- -- -- -- 0 -- -- 68
2019-04-05 08:00:00 6.7 -- -- -- -- 0 -- -- 89
2019-04-05 07:00:00 7 -- -- -- -- 0 -- -- 85
2019-04-05 06:00:00 7 -- -- -- -- 0 -- -- 91
2019-04-05 05:00:00 7.2 -- -- -- -- 0 -- -- 91
2019-04-05 04:00:00 7.6 -- -- -- -- 0 -- -- 86
2019-04-05 03:00:00 8.3 -- -- -- -- 0 -- -- 85
2019-04-05 02:00:00 8.4 -- -- -- -- 0 -- -- 85
2019-04-05 01:00:00 8.3 -- -- -- -- 0 -- -- 84
2019-04-05 00:00:00 8.4 -- -- -- -- 0 -- -- 82
2019-04-04 23:00:00 9 -- -- -- -- 0 -- -- 81
2019-04-04 22:00:00 9.2 -- -- -- -- 0 -- -- 79
2019-04-04 21:00:00 9.5 -- -- -- -- 0 -- -- 76
2019-04-04 20:00:00 10.7 -- -- -- -- 0 -- -- 72
2019-04-04 19:00:00 14.3 -- -- -- -- 0 -- -- 60
2019-04-04 18:00:00 14 -- -- -- -- 0 -- -- 60
2019-04-04 17:00:00 16 -- -- -- -- 0 -- -- 48
2019-04-04 16:00:00 16.8 -- -- -- -- 0 -- -- 36
2019-04-04 15:00:00 15.7 -- -- -- -- 0 -- -- 36
2019-04-04 14:00:00 14.1 -- -- -- -- 0 -- -- 38
2019-04-04 13:00:00 12.6 -- -- -- -- 0 -- -- 39
2019-04-04 12:00:00 10.8 -- -- -- -- 0 -- -- 39
2019-04-04 11:00:00 9.5 -- -- -- -- 0 -- -- 45
2019-04-04 10:00:00 8.7 -- -- -- -- 0 -- -- 49
2019-04-04 09:00:00 7.7 -- -- -- -- 0 -- -- 54
2019-04-04 08:00:00 6.5 -- -- -- -- 0 -- -- 55
2019-04-04 07:00:00 6.8 -- -- -- -- 0 -- -- 55
2019-04-04 06:00:00 7.6 -- -- -- -- 0 -- -- 60
2019-04-04 05:00:00 8.1 -- -- -- -- 0 -- -- 53
2019-04-04 04:00:00 8.6 -- -- -- -- 0 -- -- 57
2019-04-04 03:00:00 9.7 -- -- -- -- 0 -- -- 55
2019-04-04 02:00:00 11.1 -- -- -- -- 0 -- -- 50
2019-04-04 01:00:00 12.7 -- -- -- -- 0 -- -- 58
2019-04-04 00:00:00 14 -- -- -- -- 0 -- -- 51
2019-04-03 23:00:00 14.7 -- -- -- -- 0 -- -- 48
2019-04-03 22:00:00 15.1 -- -- -- -- 0 -- -- 46
2019-04-03 21:00:00 16.4 -- -- -- -- 0 -- -- 41
2019-04-03 20:00:00 18.6 -- -- -- -- 0 -- -- 35
2019-04-03 19:00:00 21.2 -- -- -- -- 0 -- -- 28
2019-04-03 18:00:00 22.2 -- -- -- -- 0 -- -- 25
2019-04-03 17:00:00 22.5 -- -- -- -- 0 -- -- 31
2019-04-03 16:00:00 22 -- -- -- -- 0 -- -- 33
2019-04-03 15:00:00 21.3 -- -- -- -- 0 -- -- 32
2019-04-03 14:00:00 20.2 -- -- -- -- 0 -- -- 36
2019-04-03 13:00:00 18.6 -- -- -- -- 0 -- -- 43
2019-04-03 12:00:00 16.8 -- -- -- -- 0 -- -- 48
2019-04-03 11:00:00 15.8 -- -- -- -- 0 -- -- 51
2019-04-03 10:00:00 12.7 -- -- -- -- 0 -- -- 70
2019-04-03 09:00:00 10.8 -- -- -- -- 0 -- -- 73
2019-04-03 08:00:00 9.7 -- -- -- -- 0 -- -- 74
2019-04-03 07:00:00 10.3 -- -- -- -- 0 -- -- 71
2019-04-03 06:00:00 10.6 -- -- -- -- 0 -- -- 70
2019-04-03 05:00:00 10.8 -- -- -- -- 0 -- -- 69
2019-04-03 04:00:00 10.2 -- -- -- -- 0 -- -- 76
2019-04-03 03:00:00 9.9 -- -- -- -- 0 -- -- 81
2019-04-03 02:00:00 10.4 -- -- -- -- 0 -- -- 83
2019-04-03 01:00:00 11.1 -- -- -- -- 0 -- -- 82
2019-04-03 00:00:00 12.1 -- -- -- -- 0 -- -- 78
2019-04-02 23:00:00 12.5 -- -- -- -- 0 -- -- 80
2019-04-02 22:00:00 13.9 -- -- -- -- 0 -- -- 74
2019-04-02 21:00:00 15 -- -- -- -- 0 -- -- 71
2019-04-02 20:00:00 15.8 -- -- -- -- 0 -- -- 67
2019-04-02 19:00:00 17.6 -- -- -- -- 0 -- -- 57
2019-04-02 18:00:00 17.9 -- -- -- -- 0 -- -- 57
2019-04-02 17:00:00 -- -- -- -- -- -- -- -- --
2019-04-02 16:00:00 -- -- -- -- -- -- -- -- --
2019-04-02 15:00:00 -- -- -- -- -- -- -- -- --
2019-04-02 14:00:00 -- -- -- -- -- -- -- -- --
2019-04-02 13:00:00 -- -- -- -- -- -- -- -- --
2019-04-02 12:00:00 -- -- -- -- -- -- -- -- --
2019-04-02 11:00:00 -- -- -- -- -- -- -- -- --
2019-04-02 10:00:00 -- -- -- -- -- -- -- -- --
2019-04-02 09:00:00 -- -- -- -- -- -- -- -- --
2019-04-02 08:00:00 -- -- -- -- -- -- -- -- --
2019-04-02 07:00:00 -- -- -- -- -- -- -- -- --
2019-04-02 06:00:00 -- -- -- -- -- -- -- -- --
2019-04-02 05:00:00 -- -- -- -- -- -- -- -- --
2019-04-02 04:00:00 -- -- -- -- -- -- -- -- --
2019-04-02 03:00:00 -- -- -- -- -- -- -- -- --
2019-04-02 02:00:00 -- -- -- -- -- -- -- -- --
2019-04-02 01:00:00 -- -- -- -- -- -- -- -- --
2019-04-02 00:00:00 10.8 -- -- -- -- 0.8 -- -- 98
2019-04-01 23:00:00 11.2 -- -- -- -- 0.6 -- -- 98
2019-04-01 22:00:00 11.3 -- -- -- -- 0.2 -- -- 97
2019-04-01 21:00:00 11.4 -- -- -- -- 0.6 -- -- 95
2019-04-01 20:00:00 12.3 -- -- -- -- 5.6 -- -- 88
2019-04-01 19:00:00 14.6 -- -- -- -- 0 -- -- 72
2019-04-01 18:00:00 15.7 -- -- -- -- 0 -- -- 71
2019-04-01 17:00:00 17.2 -- -- -- -- 0 -- -- 69
2019-04-01 16:00:00 17.1 -- -- -- -- 0 -- -- 68
2019-04-01 15:00:00 16.1 -- -- -- -- 0.2 -- -- 72
2019-04-01 14:00:00 14.4 -- -- -- -- 0 -- -- 73
2019-04-01 13:00:00 13.8 -- -- -- -- 0 -- -- 80
2019-04-01 12:00:00 13.2 -- -- -- -- 0 -- -- 83
2019-04-01 11:00:00 11.8 -- -- -- -- 0 -- -- 91
2019-04-01 10:00:00 10 -- -- -- -- 0 -- -- 97
2019-04-01 09:00:00 9.4 -- -- -- -- 0 -- -- 99
2019-04-01 08:00:00 9.3 -- -- -- -- 0 -- -- 99
2019-04-01 07:00:00 9.4 -- -- -- -- 0 -- -- 99
2019-04-01 06:00:00 9.4 -- -- -- -- 0 -- -- 99
2019-04-01 05:00:00 9.4 -- -- -- -- 0 -- -- 99
2019-04-01 04:00:00 9.4 -- -- -- -- 0 -- -- 100
2019-04-01 03:00:00 9.3 -- -- -- -- 0 -- -- 100
2019-04-01 02:00:00 9.3 -- -- -- -- 0 -- -- 100
2019-04-01 01:00:00 9.3 -- -- -- -- 0 -- -- 100
2019-04-01 00:00:00 9.3 -- -- -- -- 0 -- -- 100
2019-03-31 23:00:00 9.3 -- -- -- -- 0.4 -- -- 100
2019-03-31 22:00:00 9.3 -- -- -- -- 0.4 -- -- 100
2019-03-31 21:00:00 9.3 -- -- -- -- 0.8 -- -- 100
2019-03-31 20:00:00 9.3 -- -- -- -- 1.2 -- -- 100
2019-03-31 19:00:00 9.5 -- -- -- -- 0.4 -- -- 99
2019-03-31 18:00:00 9.4 -- -- -- -- 0 -- -- 99
2019-03-31 17:00:00 9.1 -- -- -- -- 0 -- -- 100
2019-03-31 16:00:00 8.8 -- -- -- -- 0.4 -- -- 100
2019-03-31 15:00:00 8.4 -- -- -- -- 1.4 -- -- 100
2019-03-31 14:00:00 7.9 -- -- -- -- 1 -- -- 100
2019-03-31 13:00:00 7.6 -- -- -- -- 1.2 -- -- 100
2019-03-31 12:00:00 7.1 -- -- -- -- 0.2 -- -- 100
2019-03-31 11:00:00 6.7 -- -- -- -- 0.6 -- -- 100
2019-03-31 10:00:00 6.6 -- -- -- -- 1 -- -- 100
2019-03-31 09:00:00 6.7 -- -- -- -- 1.2 -- -- 99
2019-03-31 08:00:00 6.5 -- -- -- -- 0.8 -- -- 98
2019-03-31 07:00:00 6.8 -- -- -- -- 1.4 -- -- 97
2019-03-31 06:00:00 7.1 -- -- -- -- 0.8 -- -- 96
2019-03-31 05:00:00 7.2 -- -- -- -- 1.4 -- -- 94
2019-03-31 03:00:00 8.9 -- -- -- -- 0 -- -- 76
2019-03-31 01:00:00 8.8 -- -- -- -- 0 -- -- 78
2019-03-31 00:00:00 8.5 -- -- -- -- 0 -- -- 83
2019-03-30 23:00:00 8.6 -- -- -- -- 0 -- -- 83
2019-03-30 22:00:00 8.7 -- -- -- -- 0 -- -- 83
2019-03-30 21:00:00 9.4 -- -- -- -- 0 -- -- 81
2019-03-30 20:00:00 10.4 -- -- -- -- 0 -- -- 74
2019-03-30 19:00:00 12.2 -- -- -- -- 0 -- -- 63
2019-03-30 18:00:00 13.3 -- -- -- -- 0 -- -- 54
2019-03-30 17:00:00 14.7 -- -- -- -- 0 -- -- 52
2019-03-30 16:00:00 16.4 -- -- -- -- 0 -- -- 49
2019-03-30 15:00:00 16.4 -- -- -- -- 0 -- -- 50
2019-03-30 14:00:00 15.4 -- -- -- -- 0 -- -- 52
2019-03-30 13:00:00 14.3 -- -- -- -- 0 -- -- 57
2019-03-30 12:00:00 13.1 -- -- -- -- 0 -- -- 61
2019-03-30 11:00:00 10.5 -- -- -- -- 0 -- -- 72
2019-03-30 10:00:00 8.5 -- -- -- -- 0 -- -- 83
2019-03-30 09:00:00 7.1 -- -- -- -- 0 -- -- 88
2019-03-30 08:00:00 6.6 -- -- -- -- 0 -- -- 88
2019-03-30 07:00:00 6.4 -- -- -- -- 0 -- -- 91
2019-03-30 06:00:00 6.6 -- -- -- -- 0 -- -- 91
2019-03-30 05:00:00 6.5 -- -- -- -- 0 -- -- 92
2019-03-30 04:00:00 6.6 -- -- -- -- 0 -- -- 89
2019-03-30 03:00:00 7 -- -- -- -- 0 -- -- 89
2019-03-30 02:00:00 6.7 -- -- -- -- 0 -- -- 92
2019-03-30 01:00:00 6.6 -- -- -- -- 0 -- -- 91
2019-03-30 00:00:00 7 -- -- -- -- 0 -- -- 87
2019-03-29 23:00:00 7.1 -- -- -- -- 0 -- -- 81
2019-03-29 22:00:00 7.5 -- -- -- -- 0 -- -- 82
2019-03-29 21:00:00 8 -- -- -- -- 0 -- -- 73
2019-03-29 20:00:00 9 -- -- -- -- 0 -- -- 71
2019-03-29 19:00:00 10.9 -- -- -- -- 0 -- -- 66
2019-03-29 18:00:00 12.8 -- -- -- -- 0 -- -- 57
2019-03-29 17:00:00 13.4 -- -- -- -- 0 -- -- 55
2019-03-29 16:00:00 -- -- -- -- -- -- -- -- --
2019-03-29 15:00:00 -- -- -- -- -- -- -- -- --
2019-03-29 14:00:00 -- -- -- -- -- -- -- -- --
2019-03-29 13:00:00 -- -- -- -- -- -- -- -- --
2019-03-29 12:00:00 -- -- -- -- -- -- -- -- --
2019-03-29 11:00:00 10.3 -- -- -- -- 0 -- -- 73
2019-03-29 10:00:00 8.6 -- -- -- -- 0 -- -- 82
2019-03-29 09:00:00 7 -- -- -- -- 0 -- -- 88
2019-03-29 08:00:00 6.1 -- -- -- -- 0 -- -- 93
2019-03-29 07:00:00 5.7 -- -- -- -- 0 -- -- 97
2019-03-29 06:00:00 5 -- -- -- -- 0 -- -- 96
2019-03-29 05:00:00 3.4 -- -- -- -- 0 -- -- 91
2019-03-29 04:00:00 4.2 -- -- -- -- 0 -- -- 88
2019-03-29 03:00:00 3.5 -- -- -- -- 0 -- -- 85
2019-03-29 02:00:00 4.9 -- -- -- -- 0 -- -- 86
2019-03-29 01:00:00 5.2 -- -- -- -- 0 -- -- 93
2019-03-29 00:00:00 5.7 -- -- -- -- 0 -- -- 74
2019-03-28 23:00:00 7.2 -- -- -- -- 0 -- -- 80
2019-03-28 22:00:00 8.1 -- -- -- -- 0 -- -- 79
2019-03-28 21:00:00 8.9 -- -- -- -- 0 -- -- 66
2019-03-28 20:00:00 10.3 -- -- -- -- 0 -- -- 54
2019-03-28 19:00:00 12.4 -- -- -- -- 0 -- -- 42
2019-03-28 18:00:00 15 -- -- -- -- 0 -- -- 31
2019-03-28 17:00:00 16.3 -- -- -- -- 0 -- -- 24
2019-03-28 16:00:00 17 -- -- -- -- 0 -- -- 25
2019-03-28 15:00:00 16.9 -- -- -- -- 0 -- -- 26
2019-03-28 14:00:00 16.1 -- -- -- -- 0 -- -- 25
2019-03-28 13:00:00 15.7 -- -- -- -- 0 -- -- 27
2019-03-28 12:00:00 14 -- -- -- -- 0 -- -- 30
2019-03-28 11:00:00 10.9 -- -- -- -- 0 -- -- 40
2019-03-28 10:00:00 8.8 -- -- -- -- 0 -- -- 50
2019-03-28 09:00:00 6.7 -- -- -- -- 0 -- -- 56
2019-03-28 08:00:00 4.9 -- -- -- -- 0 -- -- 55
2019-03-28 07:00:00 2.5 -- -- -- -- 0 -- -- 72
2019-03-28 06:00:00 3.5 -- -- -- -- 0 -- -- 66
2019-03-28 05:00:00 3.6 -- -- -- -- 0 -- -- 66
2019-03-28 04:00:00 4 -- -- -- -- 0 -- -- 61
2019-03-28 03:00:00 4.4 -- -- -- -- 0 -- -- 62
2019-03-28 02:00:00 4.4 -- -- -- -- 0 -- -- 69
2019-03-28 01:00:00 5.2 -- -- -- -- 0 -- -- 58
2019-03-28 00:00:00 7.1 -- -- -- -- 0 -- -- 41
2019-03-27 23:00:00 7.8 -- -- -- -- 0 -- -- 42
2019-03-27 22:00:00 7.9 -- -- -- -- 0 -- -- 45
2019-03-27 21:00:00 8.3 -- -- -- -- 0 -- -- 61
2019-03-27 20:00:00 9.6 -- -- -- -- 0 -- -- 56
2019-03-27 19:00:00 11.6 -- -- -- -- 0 -- -- 50
2019-03-27 18:00:00 14.2 -- -- -- -- 0 -- -- 44
2019-03-27 17:00:00 16.1 -- -- -- -- 0 -- -- 37
2019-03-27 16:00:00 16.8 -- -- -- -- 0 -- -- 32
2019-03-27 15:00:00 16.4 -- -- -- -- 0 -- -- 31
2019-03-27 14:00:00 15.6 -- -- -- -- 0 -- -- 38
2019-03-27 13:00:00 -- -- -- -- -- -- -- -- --
2019-03-27 12:00:00 -- -- -- -- -- -- -- -- --
2019-03-27 11:00:00 -- -- -- -- -- -- -- -- --
2019-03-27 10:00:00 -- -- -- -- -- -- -- -- --
2019-03-27 09:00:00 -- -- -- -- -- -- -- -- --
2019-03-27 08:00:00 -- -- -- -- -- -- -- -- --
2019-03-27 07:00:00 -- -- -- -- -- -- -- -- --
2019-03-27 06:00:00 -- -- -- -- -- -- -- -- --
2019-03-27 05:00:00 -- -- -- -- -- -- -- -- --
2019-03-27 04:00:00 -- -- -- -- -- -- -- -- --
2019-03-27 03:00:00 -- -- -- -- -- -- -- -- --
2019-03-27 02:00:00 -- -- -- -- -- -- -- -- --
2019-03-27 01:00:00 -- -- -- -- -- -- -- -- --
2019-03-27 00:00:00 -- -- -- -- -- -- -- -- --